CLASSIFICA

MARATONINA CITTA DI FIUMICINO

11/11/2018

DIVISIONI:
10KM     21KM     CLASSIFICA:   ASSOLUTA    M     F    
CATEGORIE:   TUTTE    |   M   |   N   |   O   |   P   |   Q   |   R   |   S   |   S1  
ALTRO: Classifica squadre 
FILTRO:
  Atleta      Team        Pulisci       Atleti classificati 21KM: 1147  

Cliccare sulle colonne per cambiare ordinamento
Azioni - Pos. M/F Cat. P.Cat. Pett Naz Atleta Squadra Tempo Distacco in tempo Distacco in metri Min/Km RealTime
1 511N062GABRIELLI PAMELACALCATERRA SPORT ASD01:23:34 00:14:32 3.652 00:03:59 01:23:34
2 1162Q055BOGGIATTO ROBRTTAG.S. BANCARI ROMANI01:28:46 00:19:44 4.668 00:04:14 01:28:46
3 1233P071BRAVETTI ANNALAURAPOD. GRUPPO SOLIDARIETA01:28:57 00:19:55 4.702 00:04:14 01:28:57
4 1404P0604ARQUINT CLAUDIATENNIS CLUB PARIOLI01:29:35 00:20:33 4.817 00:04:16 01:29:19
5 1475M0865PASHKEVYCH SVITLANA SERGIYIVNAPOD. GRUPPO SOLIDARIETA01:29:53 00:20:51 4.871 00:04:17 01:29:52
6 2016M1178ROSSI FRANCESCAA.S.D. ATLETICA PEGASO01:32:47 00:23:45 5.375 00:04:25 01:32:47
7 2047P1423VINCI SILVIAATLETICA FORUM SPORT CENTER01:32:53 00:23:51 5.392 00:04:25 01:32:53
8 2128O1765FABRI LUIGINAA.S.D. LBM SPORT TEAM01:33:21 00:24:19 5.470 00:04:27 01:32:55
9 2349O2938ALBERTINI GIOVANNAA.S.D. ATLETICA PEGASO01:34:27 00:25:25 5.651 00:04:30 01:34:27
10 25310M2443PANTANO ARIANNARUNNERS FOR EMERGENCY01:34:51 00:25:49 5.715 00:04:31 01:34:38
11 25911M380DI BENEDETTO MARIKAATLETICA GROSSETO BANCA TEMA01:35:09 00:26:07 5.764 00:04:32 01:35:08
12 27712O3644VENTRE MASSIMILIANOATLETICA LA SBARRA & GRILLI RUNNERS01:36:20 00:27:18 5.951 00:04:35 01:35:53
13 28613O445GIULIANI SARAA.S.D. LBM SPORT TEAM01:36:41 00:27:39 6.005 00:04:36 01:36:40
14 29314P21038GIACOMOZZI MAURIZIAO.S.O. OLD STARS OSTIA01:36:58 00:27:56 6.049 00:04:37 01:36:44
15 30715P3550BERARDINELLI LOREDANAG.S. BANCARI ROMANI01:37:30 00:28:28 6.131 00:04:39 01:37:03
16 32016Q1283PINO GIANNAPODISTICA CIAMPINO01:38:04 00:29:02 6.217 00:04:40 01:37:58
17 33517O51252D'ANNA LARAATLETICA DEI GELSI01:38:29 00:29:27 6.279 00:04:41 01:38:20
18 33618P4310AGRESTA GIULIAA.S.D. LAZIO RUNNERS TEAM01:38:30 00:29:28 6.282 00:04:41 01:38:19
19 34119O6666TATTOLI PAOLAA.S.D. FORHANS TEAM01:38:41 00:29:39 6.309 00:04:42 01:38:41
20 35120N1879TARDELLA SABRINAPOD. GRUPPO SOLIDARIETA01:38:56 00:29:54 6.346 00:04:43 01:38:36
21 35321N2606LA MANNA VALENTINA GIADAASD PLANET SPORT RUNNING01:38:58 00:29:56 6.351 00:04:43 01:38:58
22 38022O7888DE BLASIS VALENTINAASD PUROSANGUE ATHLETICS CLUB01:40:03 00:31:01 6.510 00:04:46 01:39:42
23 38323O8589REALI ALESSANDRAG.S. BANCARI ROMANI01:40:05 00:31:03 6.515 00:04:46 01:39:35
24 39224P5206MARROCCHINI IRISASD OLIMPIAEUR CAMP01:40:32 00:31:30 6.579 00:04:47 01:40:14
25 40525P626PERUZZI LAURAA.S.D. ATLETICA MONTE MARIO01:40:50 00:31:48 6.622 00:04:48 01:40:06
26 41526P7671HUESCA AVILA SANDRAREAL FETTUCCINA FC01:41:13 00:32:11 6.677 00:04:49 01:40:38
27 42327N3708CECCARELLI ELISAA.S.D. VILLA DE SANCTIS01:41:22 00:32:20 6.698 00:04:50 01:41:03
28 43428P8121PIRAS ROBERTAPOD. GRUPPO SOLIDARIETA01:41:41 00:32:39 6.742 00:04:51 01:41:21
29 45029Q227PENDENZA DANIELAA.S.D. ATLETICA MONTE MARIO01:42:15 00:33:13 6.822 00:04:52 01:42:15
30 46530P9542LUCCIARINI LAURAA.S.D. LAZIO RUNNERS TEAM01:42:38 00:33:36 6.874 00:04:53 01:42:21
31 47531N41000ROMEO SILVIAA.S.D. LIBERTAS OSTIA RUNNER AVIS01:42:55 00:33:53 6.913 00:04:54 01:42:20
32 47632Q31294PULVIRENTI ROSARIAG.S. BANCARI ROMANI01:42:56 00:33:54 6.916 00:04:54 01:42:31
33 48133P10861LIPPI FRANCESCAPOD. GRUPPO SOLIDARIETA01:43:03 00:34:01 6.932 00:04:54 01:42:50
34 49834Q4205GALLI JURKAASD OLIMPIAEUR CAMP01:43:44 00:34:42 7.024 00:04:56 01:42:55
35 49935O91148MELONI MANUELAATLETICA FORUM SPORT CENTER01:43:52 00:34:50 7.042 00:04:57 01:43:33
36 53136M41086CARACCI GIORGIARUNCARD - INDIVIDUALI01:45:00 00:35:58 7.193 00:05:00 01:44:40
37 54737N590PADOVANI CHIARAPODISTICA CASALOTTI01:45:27 00:36:25 7.252 00:05:01 01:45:27
38 56038M5239RAPONI VALENTINATIBURTINA RUNNING01:45:46 00:36:44 7.293 00:05:02 01:45:07
39 56339O10655LOMBARDOZZI VALERIAJUVENIA SSD A.R.L.01:45:52 00:36:50 7.306 00:05:03 01:45:16
40 57140O111077DELLA BELLA MARINAA.S.D. GO RUNNING01:46:11 00:37:09 7.347 00:05:03 01:45:36
41 57341Q51340LAZZAROTTI ROBERTAG.S. CAT SPORT ROMA01:46:15 00:37:13 7.355 00:05:04 01:46:02
42 58942M61208MANGANO NOEMIASD ORTIGIA MARCIA01:46:47 00:37:45 7.423 00:05:05 01:46:36
43 60343O12889DESIDERI MARIA GRAZIAASD PUROSANGUE ATHLETICS CLUB01:47:05 00:38:03 7.461 00:05:06 01:46:48
44 61544O13882AXO MARIA TERESAASD PUROSANGUE ATHLETICS CLUB01:47:30 00:38:28 7.514 00:05:07 01:47:13
45 62345O141280BINI TIZIANAPOD. GRUPPO SOLIDARIETA01:47:46 00:38:44 7.547 00:05:08 01:46:31
46 63646Q6859LA FRATTA MARINAPOD. GRUPPO SOLIDARIETA01:48:24 00:39:22 7.626 00:05:10 01:47:51
47 63947P111103CARAI DEBORAHG.S. BANCARI ROMANI01:48:24 00:39:22 7.626 00:05:10 01:47:55
48 64348N6814RIDOLFI AZZURRANO LIMITS A.S.D.01:48:35 00:39:33 7.648 00:05:10 01:47:36
49 64449P12820VALENTE GIANNAITALIA SPORT RUNNING01:48:40 00:39:38 7.659 00:05:11 01:48:32
50 64850Q7782MENESATTI ELISABETTAA.S.D. LBM SPORT TEAM01:48:49 00:39:47 7.677 00:05:11 01:47:42
51 64951P13990ZAMPETTI MONICAA.S.D. LAZIO RUNNERS TEAM01:48:55 00:39:53 7.689 00:05:11 01:47:37
52 65152O15468CORINALDESI FEDERICAA.S. AMATORI VILLA PAMPHILI01:48:58 00:39:56 7.695 00:05:11 01:47:58
53 66653N7707QUATTROCIOCCHI SERENAA.S.D. ROMA ROAD RUNNERS CLUB01:49:25 00:40:23 7.750 00:05:13 01:49:01
54 67154Q81106CIBODDO GIOVANNAG.S. BANCARI ROMANI01:49:31 00:40:29 7.762 00:05:13 01:49:12
55 67355Q9522CRISTOFARI NICOLETTARUNCARD - INDIVIDUALI01:49:36 00:40:34 7.772 00:05:13 01:48:52
56 67856S1203DELLA BELLA CARLAASD OLIMPIAEUR CAMP01:49:39 00:40:37 7.778 00:05:13 01:48:43
57 68157M7508RASPANTI MARIA ROSARIAA.S. AMATORI VILLA PAMPHILI01:49:54 00:40:52 7.808 00:05:14 01:49:07
58 68658P14663ZANNINOTTI ALESSIAA.S.D. RINCORRO01:50:04 00:41:02 7.828 00:05:15 01:48:24
59 68759O16472DI BIAGIO DANIELAA.S. AMATORI VILLA PAMPHILI01:50:07 00:41:05 7.834 00:05:15 01:48:52
60 70660S21054FERRANTINI SEVERINAA.S.D. ATLETICA MONTE MARIO01:50:55 00:41:53 7.929 00:05:17 01:50:45
61 71461P15956FURNARI VANESSAA.S. AMATORI VILLA PAMPHILI01:51:08 00:42:06 7.955 00:05:18 01:49:39
62 72562Q10858GHISOTTI ROBERTAPOD. GRUPPO SOLIDARIETA01:51:17 00:42:15 7.972 00:05:18 01:50:19
63 73463O17613RAFFO FEDERICAUISP ROMA01:51:37 00:42:35 8.011 00:05:19 01:50:51
64 73564R1648CASALINI DANIELARUNCARD - INDIVIDUALI01:51:37 00:42:35 8.011 00:05:19 01:51:15
65 73865R2950BUONFANTINO CRISTIANAA.S. AMATORI VILLA PAMPHILI01:51:45 00:42:43 8.027 00:05:19 01:50:44
66 74266N8620ZERINI ELISABETTAA.S.D. RUNNERS SANGEMINI01:51:54 00:42:52 8.044 00:05:20 01:51:35
67 74467O18885CATALANO MARIA LUISAASD PUROSANGUE ATHLETICS CLUB01:52:03 00:43:01 8.062 00:05:20 01:51:42
68 74868R3442FILOSOFI PAOLARUNNERS FOR EMERGENCY01:52:18 00:43:16 8.090 00:05:21 01:52:02
69 75169R4151LEBORONI PIEROZZI ELISABETTAA.S.D. ROMA ROAD RUNNERS CLUB01:52:21 00:43:19 8.096 00:05:21 01:50:59
70 75470Q11493MARASCO ELISAA.S. AMATORI VILLA PAMPHILI01:52:30 00:43:28 8.113 00:05:21 01:51:33
71 76771O19729ALESSANDRELLI MARUSKARUNNERS FOR EMERGENCY01:53:05 00:44:03 8.180 00:05:23 01:52:25
72 76872P16438CONTI CLAUDIARUNNERS FOR EMERGENCY01:53:05 00:44:03 8.180 00:05:23 01:52:24
73 77573S3524MONESTIROLI GAIARUNCARD - INDIVIDUALI01:53:14 00:44:12 8.197 00:05:24 01:52:29
74 77774Q121151QUONDAM PATRIZIAATLETICA FORUM SPORT CENTER01:53:15 00:44:13 8.199 00:05:24 01:52:15
75 78175O202536NANIA EDWIGEG.S. BANCARI ROMANI01:53:23 00:44:21 8.214 00:05:24 01:52:56
76 78476P17404REALI ILARIAA.S.D. PIANO MA ARRIVIAMO01:53:27 00:44:25 8.221 00:05:24 01:52:48
77 78977P18281IEVOLI FILOMENAPODISTICA CIAMPINO01:53:43 00:44:41 8.251 00:05:25 01:53:34
78 79278Q13896GERMANI CLAUDIAASD PUROSANGUE ATHLETICS CLUB01:53:51 00:44:49 8.266 00:05:25 01:53:31
79 80079Q14251DORIA SUSANNAG.S. LITAL01:54:06 00:45:04 8.294 00:05:26 01:52:51
80 81180Q151324BALZANO MARIA LAURAA.S.D. LBM SPORT TEAM01:54:24 00:45:22 8.327 00:05:27 01:53:49
81 81281R51021PIETRANTONIO FILOMENAMARATHON ROMA CASTELFUSANO01:54:32 00:45:30 8.342 00:05:27 01:54:23
82 81382Q16199CASERTA CLAUDIAASD OLIMPIAEUR CAMP01:54:34 00:45:32 8.346 00:05:27 01:53:46
83 81883Q17756DE JONG ANNIEKA.S.D. LBM SPORT TEAM01:54:50 00:45:48 8.375 00:05:28 01:54:15
84 82884O21702SCALISI DOMINGA992 RUNNING A.S.D.01:55:29 00:46:27 8.446 00:05:30 01:55:05
85 83185O22547AGLIATA STEFANIAG.S. BANCARI ROMANI01:55:37 00:46:35 8.461 00:05:30 01:55:11
86 83786O23440DI GIROLAMI MERJRUNNERS FOR EMERGENCY01:55:52 00:46:50 8.488 00:05:31 01:55:36
87 84187M81195PIOMBO IRENEG.S. CAT SPORT ROMA01:55:59 00:46:57 8.500 00:05:31 01:55:52
88 84288P19599TOMASSINI ALESSIAG.S. BANCARI ROMANI01:55:59 00:46:57 8.500 00:05:31 01:55:11
89 84389Q18331MARTUCCI ALESSANDRAG.S. POD. PRENESTE01:56:00 00:46:58 8.502 00:05:31 01:54:24
90 84590Q19675CARUSO ANTONELLAVIRTUS VILLA ADA01:56:02 00:47:00 8.506 00:05:32 01:54:16
91 84991N91204VANAT OLEKSANDRAG.S. CAT SPORT ROMA01:56:05 00:47:03 8.511 00:05:32 01:55:24
92 85092R6562CHINNI LUCIAG.S. BANCARI ROMANI01:56:07 00:47:05 8.515 00:05:32 01:55:18
93 85893N10102BARTOLONI SARAPOD. GRUPPO SOLIDARIETA01:56:31 00:47:29 8.558 00:05:33 01:56:04
94 86794M9580MOSCETTA MARTINAG.S. BANCARI ROMANI01:56:55 00:47:53 8.600 00:05:34 01:56:26
95 87095O24339CIOCI STEFANO1/2 MARATONA A STAFFETTA01:57:06 00:48:04 8.619 00:05:35 01:55:57
96 87196O251180FACCIOLO SABINAG.S. CAT SPORT ROMA01:57:07 00:48:05 8.621 00:05:35 01:55:35
97 87897Q20969PREZIOSI ANTONELLAA.S. AMATORI VILLA PAMPHILI01:57:16 00:48:14 8.637 00:05:35 01:56:41
98 87998Q21532DIODATI MARCELLAA.S.C.D. ISOLA SACRA01:57:24 00:48:22 8.651 00:05:35 01:57:23
99 88099P201176DE FELICE FABIOLAG.S. CAT SPORT ROMA01:57:33 00:48:31 8.667 00:05:36 01:56:52
100 882100Q22207MASTROLUCA ALESSANDRAASD OLIMPIAEUR CAMP01:57:36 00:48:34 8.672 00:05:36 01:56:43
101 883101R7602TURCO MARIA LAURAG.S. BANCARI ROMANI01:57:37 00:48:35 8.674 00:05:36 01:57:19
102 884102O261004SPIRITO NADIAA.S.D. LIBERTAS OSTIA RUNNER AVIS01:57:39 00:48:37 8.677 00:05:36 01:56:46
103 895103R8651ALTIERI MARIA TERESAJUVENIA SSD A.R.L.01:58:09 00:49:07 8.730 00:05:38 01:57:36
104 897104O27485IODICE MARGHERITAA.S. AMATORI VILLA PAMPHILI01:58:18 00:49:16 8.745 00:05:38 01:56:52
105 907105Q23623ARTEMI MANUELAATLETICA INPS01:59:12 00:50:10 8.838 00:05:41 01:58:09
106 914106S4652BLAVET MARIA CARLAJUVENIA SSD A.R.L.01:59:37 00:50:35 8.880 00:05:42 01:59:03
107 918107O28480FONTECEDRO MARIA CRISTINAA.S. AMATORI VILLA PAMPHILI01:59:44 00:50:42 8.892 00:05:42 01:58:24
108 923108Q24900MARATEA DANIELAASD PUROSANGUE ATHLETICS CLUB01:59:53 00:50:51 8.907 00:05:43 01:59:28
109 927109O29943SARROCCHI LAURAPODISTICA CASALOTTI02:00:06 00:51:04 8.929 00:05:43 01:59:23
110 931110M10548BACIUCCHI LUDOVICAG.S. BANCARI ROMANI02:00:15 00:51:13 8.944 00:05:44 01:59:20
111 935111Q25476DI SALVATORE ANNAA.S. AMATORI VILLA PAMPHILI02:00:30 00:51:28 8.969 00:05:44 01:59:47
112 938112O30483GRECO LUCIAA.S. AMATORI VILLA PAMPHILI02:00:43 00:51:41 8.990 00:05:45 01:59:39
113 939113P211268RECHICHI ESPEDITAOLIMPIA 200402:00:44 00:51:42 8.992 00:05:45 01:59:56
114 943114S51051DI FELICE ANNA MARIAA.S.D. ATLETICA MONTE MARIO02:00:59 00:51:57 9.017 00:05:46 02:00:49
115 945115P22797MARCHETTI FRANCESCAA.S.D. PIANO MA ARRIVIAMO02:01:13 00:52:11 9.040 00:05:46 02:00:33
116 952116Q26330CANACARI TIZIANAG.S. POD. PRENESTE02:01:29 00:52:27 9.066 00:05:47 01:59:54
117 954117O31920AGOSTINI GAIAA.S.D. RUNNING EVOLUTION02:01:30 00:52:28 9.068 00:05:47 02:01:09
118 955118Q27927DE NARDO ANTONELLAA.S.D. RUNNING EVOLUTION02:01:31 00:52:29 9.069 00:05:47 02:00:27
119 959119Q281288PETRILLI ANNE DOMINIQUEPOD. GRUPPO SOLIDARIETA02:01:44 00:52:42 9.091 00:05:48 02:00:46
120 961120P23931MARCOTULLI SONIAA.S.D. RUNNING EVOLUTION02:01:45 00:52:43 9.092 00:05:48 02:01:15
121 977121S6170HIRNYAK SOFIYAA.S.D. ATLETICA PEGASO02:02:38 00:53:36 9.178 00:05:50 02:02:23
122 978122P24238MANNESCHI NICOLETTATIBURTINA RUNNING02:02:39 00:53:37 9.180 00:05:50 02:01:59
123 981123O32450VALENTINI DILETTAA.S.D. LAZIO RUNNERS TEAM02:02:51 00:53:49 9.199 00:05:51 02:01:06
124 996124Q29886CERA LOREDANAASD PUROSANGUE ATHLETICS CLUB02:03:56 00:54:54 9.302 00:05:54 02:03:49
125 997125N111242SBREGA FABIOLANO LIMITS A.S.D.02:04:09 00:55:07 9.322 00:05:55 02:03:08
126 998126P25625BLASI IDAASD U.S. ROMA 8302:04:10 00:55:08 9.324 00:05:55 02:02:28
127 999127Q30792TAORMINA ROBERTAA.S.D. LBM SPORT TEAM02:04:11 00:55:09 9.326 00:05:55 02:03:36
128 1006128P26137CAMMARANO ALESSIAA.S.D. ROMA ROAD RUNNERS CLUB02:04:49 00:55:47 9.385 00:05:57 02:04:38
129 1007129R91025ROMAGNOLI FLAVIAMARATHON ROMA CASTELFUSANO02:04:51 00:55:49 9.388 00:05:57 02:04:14
130 1010130Q31179AQUILANTE GIUSEPPINAASD U.S. ROMA 8302:05:06 00:56:04 9.411 00:05:57 02:03:24
131 1014131O33880ZOCCHI MARIA ENRICAPOD. GRUPPO SOLIDARIETA02:05:34 00:56:32 9.454 00:05:59 02:03:58
132 1015132N12549BELA' SARAG.S. BANCARI ROMANI02:05:35 00:56:33 9.456 00:05:59 02:05:08
133 1018133Q32731FIORENTINI PATRIZIARUNNERS FOR EMERGENCY02:05:42 00:56:40 9.466 00:05:59 02:05:02
134 1021134O341009MOI BARBARAA.S.D. ROMA ROAD RUNNERS CLUB02:05:58 00:56:56 9.491 00:06:00 02:04:52
135 1022135Q33619MELCHIORRE ROBERTAA.S.D. LAZIO RUNNERS TEAM02:06:09 00:57:07 9.508 00:06:00 02:04:24
136 1023136O351325LA GAMMA DANIELAA.S.D. LBM SPORT TEAM02:06:11 00:57:09 9.511 00:06:01 02:05:54
137 1031137S71095FOLLO FILOMENAA.S.D. LBM SPORT TEAM02:07:00 00:57:58 9.585 00:06:03 02:06:25
138 1035138O36952CATALANI CHIARAA.S. AMATORI VILLA PAMPHILI02:07:15 00:58:13 9.607 00:06:04 02:06:13
139 1044139R10171IORIO MARIA GRAZIAA.S.D. ATLETICA PEGASO02:07:54 00:58:52 9.665 00:06:05 02:06:33
140 1062140O37954CRUDELE ALESSANDRAA.S. AMATORI VILLA PAMPHILI02:09:48 01:00:46 9.831 00:06:11 02:08:20
141 1065141O38470COTTA RAMOSINO LAURAA.S. AMATORI VILLA PAMPHILI02:10:06 01:01:04 9.857 00:06:12 02:08:40
142 1067142N13878STIVAL ELEONORAPOD. GRUPPO SOLIDARIETA02:10:14 01:01:12 9.868 00:06:12 02:08:58
143 1068143R11842PATTI MIRELLAITALIA MARATHON CLUB02:10:29 01:01:27 9.889 00:06:13 02:09:04
144 1069144R12751AMICI CARLAA.S.D. LBM SPORT TEAM02:10:37 01:01:35 9.901 00:06:13 02:10:06
145 1071145Q34860LIBERALE DEBORAHPOD. GRUPPO SOLIDARIETA02:10:38 01:01:36 9.902 00:06:13 02:10:04
146 1075146P271175DE CRISTOFARARO ANTONELLAG.S. CAT SPORT ROMA02:11:38 01:02:36 9.986 00:06:16 02:10:29
147 1082147S11249CENNI PAOLAG.S. LITAL02:12:20 01:03:18 10.045 00:06:18 02:12:01
148 1084148P281215LIBERTI CADIAA.S. AMATORI VILLA PAMPHILI02:12:23 01:03:21 10.049 00:06:18 02:11:05
149 1090149R13198BOLDRINI ALESSANDRAASD OLIMPIAEUR CAMP02:13:31 01:04:29 10.142 00:06:22 02:13:10
150 1091150R14935ROSSI MARIA ANTONIETTAA.S.D. RUNNING EVOLUTION02:13:42 01:04:40 10.157 00:06:22 02:13:21
151 1096151P29163BONEMEI CRISTINAA.S.D. ATLETICA PEGASO02:13:51 01:04:49 10.169 00:06:22 02:12:31
152 1097152P30726MELONI MARIA ESTERASD TEAM LADISPOLI RUNNING PROFESSIONE CICLISMO02:14:21 01:05:19 10.209 00:06:24 02:13:15
153 1099153S81231GASTALDELLO PATRIZIAVILLA AURELIA SPORTING CLUB02:14:36 01:05:34 10.229 00:06:25 02:13:07
154 1103154O39912COZZOLINO FRANCESCAA.S.D. PFIZER ITALIA RUNNING TEAM02:15:06 01:06:04 10.269 00:06:26 02:13:42
155 1107155M111076DE LUME' NOEMIA.S.D. GO RUNNING02:15:32 01:06:30 10.303 00:06:27 02:13:51
156 1108156Q35158ROSSI STEFANIAA.S.D. ROMA ROAD RUNNERS CLUB02:15:33 01:06:31 10.305 00:06:27 02:14:27
157 1109157P31918ROMANELLI LAURAA.S.D. PFIZER ITALIA RUNNING TEAM02:17:01 01:07:59 10.419 00:06:32 02:15:37
158 1113158O40507PUCA SIMONAA.S. AMATORI VILLA PAMPHILI02:18:07 01:09:05 10.503 00:06:35 02:17:24
159 1115159Q36676GAVA DONATELLAVIRTUS VILLA ADA02:18:23 01:09:21 10.524 00:06:35 02:16:39
160 1123160P321171CIOPPONI MONICAG.S. CAT SPORT ROMA02:21:48 01:12:46 10.776 00:06:45 02:20:15
161 1129161S12221CIOCCHETTI SILVANAAS.TRA. ROMA02:24:20 01:15:18 10.955 00:06:52 02:24:08
162 1131162M12429PASCUCCI ALICENO LIMITS A.S.D.02:24:49 01:15:47 10.989 00:06:54 02:23:49
163 1132163Q37714INNAMORATI PAOLAA.S.D. ATLETICA VITA ROMA02:25:17 01:16:15 11.021 00:06:55 02:23:49
164 1138164P33376MAGNOCELIA MARIARUNCARD - INDIVIDUALI02:28:26 01:19:24 11.233 00:07:04 02:27:09
165 1140165S91289RODILOS ORNELLAPOD. GRUPPO SOLIDARIETA02:29:58 01:20:56 11.333 00:07:09 02:28:12
166 1143166P34812MIOTTO SIMONAA.S.D. ATHLETIC SEA RUNNERS02:33:17 01:24:15 11.542 00:07:18 02:32:12
167 1146167R15270IBRAKOVIC SENADAASD SEMPRE DI CORSA TEAM02:35:57 01:26:55 11.704 00:07:26 02:35:11
Righe per pagina::     TUTTE    |   30   |   50   |   100